sensor_id;sensor_type;location;lat;lon;timestamp;P1;durP1;ratioP1;P2;durP2;ratioP2
11709;SDS011;5911;51.036;6.972;2022-08-27T00:01:52;4.75;;;3.47;;
11709;SDS011;5911;51.036;6.972;2022-08-27T00:04:20;5.20;;;3.42;;
11709;SDS011;5911;51.036;6.972;2022-08-27T00:06:48;4.00;;;2.92;;
11709;SDS011;5911;51.036;6.972;2022-08-27T00:09:16;6.00;;;3.05;;
11709;SDS011;5911;51.036;6.972;2022-08-27T00:11:53;4.80;;;2.75;;
11709;SDS011;5911;51.036;6.972;2022-08-27T00:14:22;5.57;;;3.53;;
11709;SDS011;5911;51.036;6.972;2022-08-27T00:16:50;7.15;;;4.15;;
11709;SDS011;5911;51.036;6.972;2022-08-27T00:19:18;3.33;;;3.13;;
11709;SDS011;5911;51.036;6.972;2022-08-27T00:21:46;4.80;;;2.95;;
11709;SDS011;5911;51.036;6.972;2022-08-27T00:24:14;4.40;;;3.28;;
11709;SDS011;5911;51.036;6.972;2022-08-27T00:26:42;4.55;;;3.42;;
11709;SDS011;5911;51.036;6.972;2022-08-27T00:29:12;3.65;;;3.28;;
11709;SDS011;5911;51.036;6.972;2022-08-27T00:31:39;4.47;;;2.92;;
11709;SDS011;5911;51.036;6.972;2022-08-27T00:34:08;4.80;;;3.40;;
11709;SDS011;5911;51.036;6.972;2022-08-27T00:36:38;3.58;;;3.00;;
11709;SDS011;5911;51.036;6.972;2022-08-27T00:39:07;5.43;;;2.90;;
11709;SDS011;5911;51.036;6.972;2022-08-27T00:41:34;5.65;;;3.50;;
11709;SDS011;5911;51.036;6.972;2022-08-27T00:44:03;6.63;;;4.03;;
11709;SDS011;5911;51.036;6.972;2022-08-27T00:46:34;3.47;;;3.17;;
11709;SDS011;5911;51.036;6.972;2022-08-27T00:49:06;3.85;;;3.42;;
11709;SDS011;5911;51.036;6.972;2022-08-27T00:51:37;4.55;;;4.10;;
11709;SDS011;5911;51.036;6.972;2022-08-27T00:54:06;5.75;;;3.83;;
11709;SDS011;5911;51.036;6.972;2022-08-27T00:56:37;4.93;;;3.08;;
11709;SDS011;5911;51.036;6.972;2022-08-27T00:59:14;3.45;;;3.15;;
11709;SDS011;5911;51.036;6.972;2022-08-27T01:01:45;3.83;;;2.83;;
11709;SDS011;5911;51.036;6.972;2022-08-27T01:04:33;4.75;;;3.92;;
11709;SDS011;5911;51.036;6.972;2022-08-27T01:07:02;9.38;;;7.03;;
11709;SDS011;5911;51.036;6.972;2022-08-27T01:09:31;15.15;;;12.10;;
11709;SDS011;5911;51.036;6.972;2022-08-27T01:11:59;15.52;;;13.93;;
11709;SDS011;5911;51.036;6.972;2022-08-27T01:14:27;15.13;;;13.52;;
11709;SDS011;5911;51.036;6.972;2022-08-27T01:16:56;15.60;;;13.93;;
11709;SDS011;5911;51.036;6.972;2022-08-27T01:19:27;15.45;;;13.88;;
11709;SDS011;5911;51.036;6.972;2022-08-27T01:22:01;16.38;;;14.77;;
11709;SDS011;5911;51.036;6.972;2022-08-27T01:24:36;18.33;;;16.02;;
11709;SDS011;5911;51.036;6.972;2022-08-27T01:27:10;17.08;;;15.38;;
11709;SDS011;5911;51.036;6.972;2022-08-27T01:29:42;15.95;;;14.30;;
11709;SDS011;5911;51.036;6.972;2022-08-27T01:32:11;16.08;;;14.48;;
11709;SDS011;5911;51.036;6.972;2022-08-27T01:34:41;15.63;;;14.02;;
11709;SDS011;5911;51.036;6.972;2022-08-27T01:37:11;15.18;;;13.60;;
11709;SDS011;5911;51.036;6.972;2022-08-27T01:39:42;15.73;;;13.75;;
11709;SDS011;5911;51.036;6.972;2022-08-27T01:42:14;15.35;;;13.75;;
11709;SDS011;5911;51.036;6.972;2022-08-27T01:44:45;16.58;;;14.88;;
11709;SDS011;5911;51.036;6.972;2022-08-27T01:47:15;14.85;;;13.38;;
11709;SDS011;5911;51.036;6.972;2022-08-27T01:49:44;17.83;;;13.55;;
11709;SDS011;5911;51.036;6.972;2022-08-27T01:52:13;16.08;;;14.40;;
11709;SDS011;5911;51.036;6.972;2022-08-27T01:54:45;20.42;;;16.83;;
11709;SDS011;5911;51.036;6.972;2022-08-27T01:57:14;21.73;;;19.55;;
11709;SDS011;5911;51.036;6.972;2022-08-27T01:59:42;23.20;;;20.80;;
11709;SDS011;5911;51.036;6.972;2022-08-27T02:02:10;23.27;;;20.98;;
11709;SDS011;5911;51.036;6.972;2022-08-27T02:04:39;20.38;;;18.30;;
11709;SDS011;5911;51.036;6.972;2022-08-27T02:07:07;21.65;;;17.42;;
11709;SDS011;5911;51.036;6.972;2022-08-27T02:09:36;19.63;;;17.63;;
11709;SDS011;5911;51.036;6.972;2022-08-27T02:12:05;21.58;;;19.17;;
11709;SDS011;5911;51.036;6.972;2022-08-27T02:14:34;20.77;;;17.95;;
11709;SDS011;5911;51.036;6.972;2022-08-27T02:17:02;22.02;;;19.60;;
11709;SDS011;5911;51.036;6.972;2022-08-27T02:19:29;22.73;;;20.35;;
11709;SDS011;5911;51.036;6.972;2022-08-27T02:21:57;24.58;;;21.20;;
11709;SDS011;5911;51.036;6.972;2022-08-27T02:24:25;25.30;;;22.20;;
11709;SDS011;5911;51.036;6.972;2022-08-27T02:26:54;24.92;;;20.90;;
11709;SDS011;5911;51.036;6.972;2022-08-27T02:29:24;24.17;;;20.73;;
11709;SDS011;5911;51.036;6.972;2022-08-27T02:31:52;23.60;;;19.98;;
11709;SDS011;5911;51.036;6.972;2022-08-27T02:34:20;24.05;;;19.15;;
11709;SDS011;5911;51.036;6.972;2022-08-27T02:36:48;22.83;;;20.45;;
11709;SDS011;5911;51.036;6.972;2022-08-27T02:39:16;19.20;;;16.27;;
11709;SDS011;5911;51.036;6.972;2022-08-27T02:41:44;20.67;;;16.38;;
11709;SDS011;5911;51.036;6.972;2022-08-27T02:44:12;19.48;;;15.52;;
11709;SDS011;5911;51.036;6.972;2022-08-27T02:46:41;19.40;;;14.73;;
11709;SDS011;5911;51.036;6.972;2022-08-27T02:49:09;19.27;;;13.40;;
11709;SDS011;5911;51.036;6.972;2022-08-27T02:51:38;17.15;;;12.70;;
11709;SDS011;5911;51.036;6.972;2022-08-27T02:54:06;13.32;;;11.27;;
11709;SDS011;5911;51.036;6.972;2022-08-27T02:56:35;18.58;;;9.80;;
11709;SDS011;5911;51.036;6.972;2022-08-27T02:59:03;11.73;;;8.35;;
11709;SDS011;5911;51.036;6.972;2022-08-27T03:01:31;10.73;;;7.38;;
11709;SDS011;5911;51.036;6.972;2022-08-27T03:04:00;10.07;;;6.80;;
11709;SDS011;5911;51.036;6.972;2022-08-27T03:06:28;10.32;;;6.60;;
11709;SDS011;5911;51.036;6.972;2022-08-27T03:08:56;8.75;;;5.93;;
11709;SDS011;5911;51.036;6.972;2022-08-27T03:11:24;10.45;;;5.72;;
11709;SDS011;5911;51.036;6.972;2022-08-27T03:13:52;8.57;;;5.50;;
11709;SDS011;5911;51.036;6.972;2022-08-27T03:16:20;9.57;;;5.65;;
11709;SDS011;5911;51.036;6.972;2022-08-27T03:18:48;8.55;;;5.55;;
11709;SDS011;5911;51.036;6.972;2022-08-27T03:21:17;10.82;;;7.15;;
11709;SDS011;5911;51.036;6.972;2022-08-27T03:23:47;9.98;;;6.28;;
11709;SDS011;5911;51.036;6.972;2022-08-27T03:26:15;10.52;;;6.68;;
11709;SDS011;5911;51.036;6.972;2022-08-27T03:28:44;12.27;;;6.88;;
11709;SDS011;5911;51.036;6.972;2022-08-27T03:31:12;8.15;;;6.68;;
11709;SDS011;5911;51.036;6.972;2022-08-27T03:33:42;9.43;;;6.43;;
11709;SDS011;5911;51.036;6.972;2022-08-27T03:36:10;10.82;;;6.07;;
11709;SDS011;5911;51.036;6.972;2022-08-27T03:38:39;11.15;;;5.82;;
11709;SDS011;5911;51.036;6.972;2022-08-27T03:41:07;9.77;;;5.15;;
11709;SDS011;5911;51.036;6.972;2022-08-27T03:43:35;11.68;;;5.90;;
11709;SDS011;5911;51.036;6.972;2022-08-27T03:46:03;7.30;;;5.00;;
11709;SDS011;5911;51.036;6.972;2022-08-27T03:48:33;8.77;;;5.28;;
11709;SDS011;5911;51.036;6.972;2022-08-27T03:51:03;8.82;;;4.47;;
11709;SDS011;5911;51.036;6.972;2022-08-27T03:53:33;8.38;;;4.55;;
11709;SDS011;5911;51.036;6.972;2022-08-27T03:56:03;6.38;;;4.55;;
11709;SDS011;5911;51.036;6.972;2022-08-27T03:58:32;8.10;;;5.45;;
11709;SDS011;5911;51.036;6.972;2022-08-27T04:01:01;6.65;;;4.93;;
11709;SDS011;5911;51.036;6.972;2022-08-27T04:03:29;8.93;;;5.18;;
11709;SDS011;5911;51.036;6.972;2022-08-27T04:05:57;7.72;;;4.90;;
11709;SDS011;5911;51.036;6.972;2022-08-27T04:08:25;8.25;;;4.95;;
11709;SDS011;5911;51.036;6.972;2022-08-27T04:10:54;11.88;;;6.18;;
11709;SDS011;5911;51.036;6.972;2022-08-27T04:13:23;10.52;;;5.90;;
11709;SDS011;5911;51.036;6.972;2022-08-27T04:15:52;11.00;;;6.15;;
11709;SDS011;5911;51.036;6.972;2022-08-27T04:18:20;7.65;;;6.07;;
11709;SDS011;5911;51.036;6.972;2022-08-27T04:20:49;9.25;;;6.15;;
11709;SDS011;5911;51.036;6.972;2022-08-27T04:23:18;9.25;;;5.45;;
11709;SDS011;5911;51.036;6.972;2022-08-27T04:25:47;9.15;;;6.10;;
11709;SDS011;5911;51.036;6.972;2022-08-27T04:28:15;7.60;;;5.53;;
11709;SDS011;5911;51.036;6.972;2022-08-27T04:30:45;7.50;;;6.15;;
11709;SDS011;5911;51.036;6.972;2022-08-27T04:33:13;9.55;;;6.50;;
11709;SDS011;5911;51.036;6.972;2022-08-27T04:35:42;10.52;;;6.47;;
11709;SDS011;5911;51.036;6.972;2022-08-27T04:38:09;10.52;;;6.55;;
11709;SDS011;5911;51.036;6.972;2022-08-27T04:40:38;8.80;;;5.70;;
11709;SDS011;5911;51.036;6.972;2022-08-27T04:43:23;9.27;;;5.80;;
11709;SDS011;5911;51.036;6.972;2022-08-27T04:45:54;10.30;;;5.32;;
11709;SDS011;5911;51.036;6.972;2022-08-27T04:48:22;6.57;;;5.57;;
11709;SDS011;5911;51.036;6.972;2022-08-27T04:50:50;9.55;;;5.65;;
11709;SDS011;5911;51.036;6.972;2022-08-27T04:53:18;8.45;;;5.28;;
11709;SDS011;5911;51.036;6.972;2022-08-27T04:55:48;7.93;;;5.07;;
11709;SDS011;5911;51.036;6.972;2022-08-27T04:58:18;11.00;;;5.50;;
11709;SDS011;5911;51.036;6.972;2022-08-27T05:00:48;9.63;;;5.65;;
11709;SDS011;5911;51.036;6.972;2022-08-27T05:03:19;10.93;;;6.32;;
11709;SDS011;5911;51.036;6.972;2022-08-27T05:05:49;11.57;;;6.28;;
11709;SDS011;5911;51.036;6.972;2022-08-27T05:08:18;7.40;;;5.25;;
11709;SDS011;5911;51.036;6.972;2022-08-27T05:10:47;11.60;;;5.40;;
11709;SDS011;5911;51.036;6.972;2022-08-27T05:13:16;11.23;;;5.55;;
11709;SDS011;5911;51.036;6.972;2022-08-27T05:15:45;14.98;;;5.80;;
11709;SDS011;5911;51.036;6.972;2022-08-27T05:18:14;8.15;;;4.75;;
11709;SDS011;5911;51.036;6.972;2022-08-27T05:20:44;7.70;;;4.28;;
11709;SDS011;5911;51.036;6.972;2022-08-27T05:23:14;8.07;;;4.10;;
11709;SDS011;5911;51.036;6.972;2022-08-27T05:25:43;8.05;;;4.15;;
11709;SDS011;5911;51.036;6.972;2022-08-27T05:28:13;7.25;;;3.67;;
11709;SDS011;5911;51.036;6.972;2022-08-27T05:30:43;6.45;;;3.58;;
11709;SDS011;5911;51.036;6.972;2022-08-27T05:33:22;6.22;;;3.47;;
11709;SDS011;5911;51.036;6.972;2022-08-27T05:35:53;8.98;;;3.30;;
11709;SDS011;5911;51.036;6.972;2022-08-27T05:38:24;7.72;;;3.70;;
11709;SDS011;5911;51.036;6.972;2022-08-27T05:41:00;6.90;;;3.42;;
11709;SDS011;5911;51.036;6.972;2022-08-27T05:43:30;6.13;;;3.15;;
11709;SDS011;5911;51.036;6.972;2022-08-27T05:46:01;6.13;;;3.25;;
11709;SDS011;5911;51.036;6.972;2022-08-27T05:48:31;6.93;;;3.80;;
11709;SDS011;5911;51.036;6.972;2022-08-27T05:51:07;7.63;;;4.47;;
11709;SDS011;5911;51.036;6.972;2022-08-27T05:53:38;6.72;;;4.15;;
11709;SDS011;5911;51.036;6.972;2022-08-27T05:56:10;4.38;;;3.38;;
11709;SDS011;5911;51.036;6.972;2022-08-27T05:58:39;8.43;;;3.95;;
11709;SDS011;5911;51.036;6.972;2022-08-27T06:01:25;10.65;;;3.70;;
11709;SDS011;5911;51.036;6.972;2022-08-27T06:03:53;7.70;;;4.38;;
11709;SDS011;5911;51.036;6.972;2022-08-27T06:06:23;6.25;;;3.55;;
11709;SDS011;5911;51.036;6.972;2022-08-27T06:08:51;6.15;;;3.60;;
11709;SDS011;5911;51.036;6.972;2022-08-27T06:11:21;6.10;;;3.97;;
11709;SDS011;5911;51.036;6.972;2022-08-27T06:13:49;7.05;;;3.92;;
11709;SDS011;5911;51.036;6.972;2022-08-27T06:16:18;5.43;;;3.78;;
11709;SDS011;5911;51.036;6.972;2022-08-27T06:18:47;8.80;;;3.70;;
11709;SDS011;5911;51.036;6.972;2022-08-27T06:21:16;7.38;;;4.18;;
11709;SDS011;5911;51.036;6.972;2022-08-27T06:23:51;8.20;;;4.20;;
11709;SDS011;5911;51.036;6.972;2022-08-27T06:26:21;4.47;;;4.03;;
11709;SDS011;5911;51.036;6.972;2022-08-27T06:28:50;6.32;;;3.92;;
11709;SDS011;5911;51.036;6.972;2022-08-27T06:31:19;6.00;;;3.67;;
11709;SDS011;5911;51.036;6.972;2022-08-27T06:33:52;5.82;;;3.85;;
11709;SDS011;5911;51.036;6.972;2022-08-27T06:36:32;6.63;;;3.88;;
11709;SDS011;5911;51.036;6.972;2022-08-27T06:39:06;6.18;;;3.55;;
11709;SDS011;5911;51.036;6.972;2022-08-27T06:41:39;8.35;;;4.10;;
11709;SDS011;5911;51.036;6.972;2022-08-27T06:44:10;7.07;;;4.20;;
11709;SDS011;5911;51.036;6.972;2022-08-27T06:46:38;4.88;;;4.05;;
11709;SDS011;5911;51.036;6.972;2022-08-27T06:49:07;6.95;;;4.47;;
11709;SDS011;5911;51.036;6.972;2022-08-27T06:51:37;7.47;;;4.80;;
11709;SDS011;5911;51.036;6.972;2022-08-27T06:54:09;5.72;;;4.10;;
11709;SDS011;5911;51.036;6.972;2022-08-27T06:56:38;6.63;;;4.07;;
11709;SDS011;5911;51.036;6.972;2022-08-27T06:59:07;9.50;;;5.28;;
11709;SDS011;5911;51.036;6.972;2022-08-27T07:01:38;7.38;;;4.85;;
11709;SDS011;5911;51.036;6.972;2022-08-27T07:04:10;6.50;;;4.45;;
11709;SDS011;5911;51.036;6.972;2022-08-27T07:06:39;6.28;;;4.38;;
11709;SDS011;5911;51.036;6.972;2022-08-27T07:09:09;8.60;;;4.43;;
11709;SDS011;5911;51.036;6.972;2022-08-27T07:11:37;6.30;;;4.53;;
11709;SDS011;5911;51.036;6.972;2022-08-27T07:14:06;5.80;;;4.60;;
11709;SDS011;5911;51.036;6.972;2022-08-27T07:16:34;5.72;;;3.60;;
11709;SDS011;5911;51.036;6.972;2022-08-27T07:19:06;8.70;;;4.72;;
11709;SDS011;5911;51.036;6.972;2022-08-27T07:21:37;6.05;;;3.67;;
11709;SDS011;5911;51.036;6.972;2022-08-27T07:24:05;5.10;;;4.32;;
11709;SDS011;5911;51.036;6.972;2022-08-27T07:26:37;4.93;;;4.13;;
11709;SDS011;5911;51.036;6.972;2022-08-27T07:29:07;5.40;;;4.50;;
11709;SDS011;5911;51.036;6.972;2022-08-27T07:31:36;8.38;;;4.80;;
11709;SDS011;5911;51.036;6.972;2022-08-27T07:34:05;6.05;;;4.70;;
11709;SDS011;5911;51.036;6.972;2022-08-27T07:36:33;5.68;;;4.72;;
11709;SDS011;5911;51.036;6.972;2022-08-27T07:39:02;9.75;;;5.30;;
11709;SDS011;5911;51.036;6.972;2022-08-27T07:41:30;7.63;;;4.35;;
11709;SDS011;5911;51.036;6.972;2022-08-27T07:44:20;6.22;;;4.72;;
11709;SDS011;5911;51.036;6.972;2022-08-27T07:47:00;5.88;;;4.63;;
11709;SDS011;5911;51.036;6.972;2022-08-27T07:49:28;8.40;;;4.10;;
11709;SDS011;5911;51.036;6.972;2022-08-27T07:51:57;7.05;;;4.60;;
11709;SDS011;5911;51.036;6.972;2022-08-27T07:54:24;6.43;;;4.55;;
11709;SDS011;5911;51.036;6.972;2022-08-27T07:56:52;7.05;;;4.40;;
11709;SDS011;5911;51.036;6.972;2022-08-27T07:59:23;7.80;;;4.70;;
11709;SDS011;5911;51.036;6.972;2022-08-27T08:01:52;8.63;;;5.00;;
11709;SDS011;5911;51.036;6.972;2022-08-27T08:04:21;10.88;;;5.13;;
11709;SDS011;5911;51.036;6.972;2022-08-27T08:06:50;8.30;;;5.03;;
11709;SDS011;5911;51.036;6.972;2022-08-27T08:09:18;5.03;;;4.55;;
11709;SDS011;5911;51.036;6.972;2022-08-27T08:11:47;6.68;;;4.90;;
11709;SDS011;5911;51.036;6.972;2022-08-27T08:14:15;7.50;;;4.68;;
11709;SDS011;5911;51.036;6.972;2022-08-27T08:16:44;10.00;;;5.40;;
11709;SDS011;5911;51.036;6.972;2022-08-27T08:19:13;5.97;;;4.80;;
11709;SDS011;5911;51.036;6.972;2022-08-27T08:21:41;6.90;;;5.32;;
11709;SDS011;5911;51.036;6.972;2022-08-27T08:24:09;9.10;;;4.57;;
11709;SDS011;5911;51.036;6.972;2022-08-27T08:26:37;11.25;;;4.85;;
11709;SDS011;5911;51.036;6.972;2022-08-27T08:29:07;5.80;;;4.75;;
11709;SDS011;5911;51.036;6.972;2022-08-27T08:31:43;5.65;;;4.40;;
11709;SDS011;5911;51.036;6.972;2022-08-27T08:34:16;7.20;;;4.70;;
11709;SDS011;5911;51.036;6.972;2022-08-27T08:36:44;7.38;;;4.72;;
11709;SDS011;5911;51.036;6.972;2022-08-27T08:39:20;7.90;;;4.75;;
11709;SDS011;5911;51.036;6.972;2022-08-27T08:41:49;6.88;;;4.75;;
11709;SDS011;5911;51.036;6.972;2022-08-27T08:44:23;6.13;;;5.10;;
11709;SDS011;5911;51.036;6.972;2022-08-27T08:47:00;6.80;;;5.28;;
11709;SDS011;5911;51.036;6.972;2022-08-27T08:49:36;9.40;;;5.88;;
11709;SDS011;5911;51.036;6.972;2022-08-27T08:52:16;7.90;;;5.20;;
11709;SDS011;5911;51.036;6.972;2022-08-27T08:54:59;12.98;;;9.38;;
11709;SDS011;5911;51.036;6.972;2022-08-27T08:57:38;10.70;;;5.93;;
11709;SDS011;5911;51.036;6.972;2022-08-27T09:00:12;7.53;;;5.15;;
11709;SDS011;5911;51.036;6.972;2022-08-27T09:02:43;9.40;;;5.55;;
11709;SDS011;5911;51.036;6.972;2022-08-27T09:05:21;6.93;;;4.88;;
11709;SDS011;5911;51.036;6.972;2022-08-27T09:07:55;10.45;;;5.50;;
11709;SDS011;5911;51.036;6.972;2022-08-27T09:10:50;6.78;;;4.80;;
11709;SDS011;5911;51.036;6.972;2022-08-27T09:13:22;7.38;;;5.47;;
11709;SDS011;5911;51.036;6.972;2022-08-27T09:15:55;9.68;;;5.05;;
11709;SDS011;5911;51.036;6.972;2022-08-27T09:18:26;7.05;;;4.80;;
11709;SDS011;5911;51.036;6.972;2022-08-27T09:20:57;7.40;;;5.13;;
11709;SDS011;5911;51.036;6.972;2022-08-27T09:23:36;5.60;;;4.40;;
11709;SDS011;5911;51.036;6.972;2022-08-27T09:26:18;6.90;;;4.75;;
11709;SDS011;5911;51.036;6.972;2022-08-27T09:28:48;6.57;;;4.80;;
11709;SDS011;5911;51.036;6.972;2022-08-27T09:31:39;7.03;;;4.80;;
11709;SDS011;5911;51.036;6.972;2022-08-27T09:34:08;5.95;;;4.63;;
11709;SDS011;5911;51.036;6.972;2022-08-27T09:36:45;6.45;;;4.72;;
11709;SDS011;5911;51.036;6.972;2022-08-27T09:39:18;6.57;;;4.40;;
11709;SDS011;5911;51.036;6.972;2022-08-27T09:41:54;13.30;;;4.68;;
11709;SDS011;5911;51.036;6.972;2022-08-27T09:44:22;7.35;;;4.40;;
11709;SDS011;5911;51.036;6.972;2022-08-27T09:46:52;5.15;;;4.05;;
11709;SDS011;5911;51.036;6.972;2022-08-27T09:49:23;7.32;;;3.67;;
11709;SDS011;5911;51.036;6.972;2022-08-27T09:51:52;5.75;;;3.55;;
11709;SDS011;5911;51.036;6.972;2022-08-27T09:54:35;5.30;;;3.45;;
11709;SDS011;5911;51.036;6.972;2022-08-27T09:57:06;6.07;;;3.33;;
11709;SDS011;5911;51.036;6.972;2022-08-27T09:59:37;8.20;;;3.67;;
11709;SDS011;5911;51.036;6.972;2022-08-27T10:02:12;5.35;;;2.92;;
11709;SDS011;5911;51.036;6.972;2022-08-27T10:04:43;3.88;;;2.67;;
11709;SDS011;5911;51.036;6.972;2022-08-27T10:07:22;7.20;;;3.40;;
11709;SDS011;5911;51.036;6.972;2022-08-27T10:09:59;4.68;;;3.50;;
11709;SDS011;5911;51.036;6.972;2022-08-27T10:12:37;6.57;;;3.40;;
11709;SDS011;5911;51.036;6.972;2022-08-27T10:15:13;6.10;;;2.90;;
11709;SDS011;5911;51.036;6.972;2022-08-27T10:17:44;6.50;;;3.05;;
11709;SDS011;5911;51.036;6.972;2022-08-27T10:20:26;6.82;;;3.50;;
11709;SDS011;5911;51.036;6.972;2022-08-27T10:23:07;7.43;;;3.22;;
11709;SDS011;5911;51.036;6.972;2022-08-27T10:25:49;3.97;;;2.53;;
11709;SDS011;5911;51.036;6.972;2022-08-27T10:28:28;6.55;;;3.15;;
11709;SDS011;5911;51.036;6.972;2022-08-27T10:31:10;6.38;;;3.00;;
11709;SDS011;5911;51.036;6.972;2022-08-27T10:33:48;4.65;;;2.53;;
11709;SDS011;5911;51.036;6.972;2022-08-27T10:36:28;6.60;;;2.40;;
11709;SDS011;5911;51.036;6.972;2022-08-27T10:39:09;4.55;;;2.33;;
11709;SDS011;5911;51.036;6.972;2022-08-27T10:41:47;5.50;;;3.00;;
11709;SDS011;5911;51.036;6.972;2022-08-27T10:44:33;4.03;;;2.38;;
11709;SDS011;5911;51.036;6.972;2022-08-27T10:47:14;4.20;;;2.05;;
11709;SDS011;5911;51.036;6.972;2022-08-27T10:50:00;9.07;;;3.13;;
11709;SDS011;5911;51.036;6.972;2022-08-27T10:52:34;4.53;;;2.28;;
11709;SDS011;5911;51.036;6.972;2022-08-27T10:55:09;4.30;;;2.55;;
11709;SDS011;5911;51.036;6.972;2022-08-27T10:57:46;5.93;;;2.22;;
11709;SDS011;5911;51.036;6.972;2022-08-27T11:00:28;8.27;;;3.08;;
11709;SDS011;5911;51.036;6.972;2022-08-27T11:03:04;6.15;;;3.25;;
11709;SDS011;5911;51.036;6.972;2022-08-27T11:05:40;5.63;;;3.65;;
11709;SDS011;5911;51.036;6.972;2022-08-27T11:08:15;7.38;;;3.50;;
11709;SDS011;5911;51.036;6.972;2022-08-27T11:10:47;4.82;;;3.30;;
11709;SDS011;5911;51.036;6.972;2022-08-27T11:13:19;8.85;;;4.15;;
11709;SDS011;5911;51.036;6.972;2022-08-27T11:15:57;7.85;;;4.75;;
11709;SDS011;5911;51.036;6.972;2022-08-27T11:18:32;8.25;;;5.43;;
11709;SDS011;5911;51.036;6.972;2022-08-27T11:21:09;5.07;;;4.40;;
11709;SDS011;5911;51.036;6.972;2022-08-27T11:23:44;5.22;;;4.30;;
11709;SDS011;5911;51.036;6.972;2022-08-27T11:26:16;5.82;;;4.07;;
11709;SDS011;5911;51.036;6.972;2022-08-27T11:28:45;8.60;;;4.72;;
11709;SDS011;5911;51.036;6.972;2022-08-27T11:31:18;6.55;;;4.78;;
11709;SDS011;5911;51.036;6.972;2022-08-27T11:33:53;8.60;;;5.78;;
11709;SDS011;5911;51.036;6.972;2022-08-27T11:36:33;7.35;;;5.63;;
11709;SDS011;5911;51.036;6.972;2022-08-27T11:39:29;7.53;;;5.88;;
11709;SDS011;5911;51.036;6.972;2022-08-27T11:42:17;7.47;;;5.30;;
11709;SDS011;5911;51.036;6.972;2022-08-27T11:45:02;6.45;;;5.13;;
11709;SDS011;5911;51.036;6.972;2022-08-27T11:47:32;7.45;;;5.40;;
11709;SDS011;5911;51.036;6.972;2022-08-27T11:50:04;7.05;;;4.82;;
11709;SDS011;5911;51.036;6.972;2022-08-27T11:52:35;7.90;;;5.45;;
11709;SDS011;5911;51.036;6.972;2022-08-27T11:55:11;7.22;;;5.05;;
11709;SDS011;5911;51.036;6.972;2022-08-27T11:58:03;10.48;;;5.55;;
11709;SDS011;5911;51.036;6.972;2022-08-27T12:00:35;8.13;;;4.38;;
11709;SDS011;5911;51.036;6.972;2022-08-27T12:03:05;8.23;;;4.80;;
11709;SDS011;5911;51.036;6.972;2022-08-27T12:05:39;7.80;;;5.03;;
11709;SDS011;5911;51.036;6.972;2022-08-27T12:08:13;8.10;;;4.68;;
11709;SDS011;5911;51.036;6.972;2022-08-27T12:11:00;4.85;;;4.00;;
11709;SDS011;5911;51.036;6.972;2022-08-27T12:13:36;5.75;;;4.03;;
11709;SDS011;5911;51.036;6.972;2022-08-27T12:16:13;8.02;;;4.38;;
11709;SDS011;5911;51.036;6.972;2022-08-27T12:18:52;8.45;;;3.97;;
11709;SDS011;5911;51.036;6.972;2022-08-27T12:21:34;7.47;;;4.07;;
11709;SDS011;5911;51.036;6.972;2022-08-27T12:24:19;6.95;;;3.53;;
11709;SDS011;5911;51.036;6.972;2022-08-27T12:27:14;7.18;;;4.07;;
11709;SDS011;5911;51.036;6.972;2022-08-27T12:29:52;6.57;;;3.75;;
11709;SDS011;5911;51.036;6.972;2022-08-27T12:32:24;6.15;;;4.00;;
11709;SDS011;5911;51.036;6.972;2022-08-27T12:34:59;9.13;;;4.38;;
11709;SDS011;5911;51.036;6.972;2022-08-27T12:37:32;6.18;;;4.00;;
11709;SDS011;5911;51.036;6.972;2022-08-27T12:40:05;6.38;;;3.75;;
11709;SDS011;5911;51.036;6.972;2022-08-27T12:42:40;9.48;;;4.93;;
11709;SDS011;5911;51.036;6.972;2022-08-27T12:45:16;6.72;;;3.88;;
11709;SDS011;5911;51.036;6.972;2022-08-27T12:47:46;5.28;;;4.35;;
11709;SDS011;5911;51.036;6.972;2022-08-27T12:50:20;7.43;;;4.78;;
11709;SDS011;5911;51.036;6.972;2022-08-27T12:55:58;9.25;;;4.53;;
11709;SDS011;5911;51.036;6.972;2022-08-27T12:58:38;6.57;;;4.78;;
11709;SDS011;5911;51.036;6.972;2022-08-27T13:01:19;8.23;;;4.60;;
11709;SDS011;5911;51.036;6.972;2022-08-27T13:04:09;5.95;;;3.90;;
11709;SDS011;5911;51.036;6.972;2022-08-27T13:06:46;6.57;;;3.72;;
11709;SDS011;5911;51.036;6.972;2022-08-27T13:09:14;5.85;;;3.53;;
11709;SDS011;5911;51.036;6.972;2022-08-27T13:11:43;6.80;;;3.65;;
11709;SDS011;5911;51.036;6.972;2022-08-27T13:14:15;5.25;;;4.10;;
11709;SDS011;5911;51.036;6.972;2022-08-27T13:16:48;7.13;;;3.92;;
11709;SDS011;5911;51.036;6.972;2022-08-27T13:19:19;4.32;;;3.70;;
11709;SDS011;5911;51.036;6.972;2022-08-27T13:21:50;6.22;;;3.85;;
11709;SDS011;5911;51.036;6.972;2022-08-27T13:24:31;5.28;;;3.90;;
11709;SDS011;5911;51.036;6.972;2022-08-27T13:27:01;7.43;;;3.55;;
11709;SDS011;5911;51.036;6.972;2022-08-27T13:29:31;6.28;;;3.33;;
11709;SDS011;5911;51.036;6.972;2022-08-27T13:32:00;6.18;;;3.60;;
11709;SDS011;5911;51.036;6.972;2022-08-27T13:34:31;7.65;;;3.63;;
11709;SDS011;5911;51.036;6.972;2022-08-27T13:37:03;6.13;;;3.17;;
11709;SDS011;5911;51.036;6.972;2022-08-27T13:39:33;6.90;;;3.38;;
11709;SDS011;5911;51.036;6.972;2022-08-27T13:42:04;5.03;;;3.03;;
11709;SDS011;5911;51.036;6.972;2022-08-27T13:44:37;5.68;;;3.67;;
11709;SDS011;5911;51.036;6.972;2022-08-27T13:47:14;5.47;;;3.35;;
11709;SDS011;5911;51.036;6.972;2022-08-27T13:49:44;4.28;;;3.40;;
11709;SDS011;5911;51.036;6.972;2022-08-27T13:52:15;5.90;;;3.78;;
11709;SDS011;5911;51.036;6.972;2022-08-27T13:54:53;7.63;;;3.75;;
11709;SDS011;5911;51.036;6.972;2022-08-27T13:57:25;5.03;;;3.70;;
11709;SDS011;5911;51.036;6.972;2022-08-27T14:00:03;7.25;;;3.75;;
11709;SDS011;5911;51.036;6.972;2022-08-27T14:02:37;7.20;;;3.17;;
11709;SDS011;5911;51.036;6.972;2022-08-27T14:05:07;3.75;;;3.03;;
11709;SDS011;5911;51.036;6.972;2022-08-27T14:07:40;4.22;;;3.50;;
11709;SDS011;5911;51.036;6.972;2022-08-27T14:10:29;3.70;;;2.90;;
11709;SDS011;5911;51.036;6.972;2022-08-27T14:13:00;6.53;;;3.70;;
11709;SDS011;5911;51.036;6.972;2022-08-27T14:15:34;4.35;;;2.72;;
11709;SDS011;5911;51.036;6.972;2022-08-27T14:18:05;5.57;;;3.30;;
11709;SDS011;5911;51.036;6.972;2022-08-27T14:21:02;6.28;;;3.38;;
11709;SDS011;5911;51.036;6.972;2022-08-27T14:23:30;5.88;;;3.53;;
11709;SDS011;5911;51.036;6.972;2022-08-27T14:25:59;4.80;;;3.38;;
11709;SDS011;5911;51.036;6.972;2022-08-27T14:28:27;5.95;;;3.28;;
11709;SDS011;5911;51.036;6.972;2022-08-27T14:30:58;5.03;;;2.78;;
11709;SDS011;5911;51.036;6.972;2022-08-27T14:33:26;4.68;;;2.97;;
11709;SDS011;5911;51.036;6.972;2022-08-27T14:35:54;6.97;;;2.92;;
11709;SDS011;5911;51.036;6.972;2022-08-27T14:38:22;7.32;;;3.30;;
11709;SDS011;5911;51.036;6.972;2022-08-27T14:40:52;7.72;;;3.00;;
11709;SDS011;5911;51.036;6.972;2022-08-27T14:43:20;4.97;;;2.80;;
11709;SDS011;5911;51.036;6.972;2022-08-27T14:45:49;8.15;;;3.53;;
11709;SDS011;5911;51.036;6.972;2022-08-27T14:48:20;5.57;;;3.15;;
11709;SDS011;5911;51.036;6.972;2022-08-27T14:50:54;6.70;;;4.32;;
11709;SDS011;5911;51.036;6.972;2022-08-27T14:53:22;6.90;;;4.68;;
11709;SDS011;5911;51.036;6.972;2022-08-27T14:55:51;7.55;;;4.10;;
11709;SDS011;5911;51.036;6.972;2022-08-27T14:58:19;8.27;;;5.53;;
11709;SDS011;5911;51.036;6.972;2022-08-27T15:00:48;7.55;;;5.43;;
11709;SDS011;5911;51.036;6.972;2022-08-27T15:03:17;10.18;;;5.82;;
11709;SDS011;5911;51.036;6.972;2022-08-27T15:05:47;7.75;;;4.90;;
11709;SDS011;5911;51.036;6.972;2022-08-27T15:08:15;8.35;;;5.30;;
11709;SDS011;5911;51.036;6.972;2022-08-27T15:10:42;10.65;;;5.97;;
11709;SDS011;5911;51.036;6.972;2022-08-27T15:13:11;6.22;;;5.20;;
11709;SDS011;5911;51.036;6.972;2022-08-27T15:15:39;7.53;;;5.75;;
11709;SDS011;5911;51.036;6.972;2022-08-27T15:18:07;8.68;;;6.15;;
11709;SDS011;5911;51.036;6.972;2022-08-27T15:20:36;15.25;;;6.70;;
11709;SDS011;5911;51.036;6.972;2022-08-27T15:23:05;9.20;;;5.63;;
11709;SDS011;5911;51.036;6.972;2022-08-27T15:25:34;6.28;;;5.63;;
11709;SDS011;5911;51.036;6.972;2022-08-27T15:28:02;9.07;;;5.20;;
11709;SDS011;5911;51.036;6.972;2022-08-27T15:30:32;5.65;;;5.15;;